Time;durP1;ratioP1;P1;durP2;ratioP2;P2;SDS_P1;SDS_P2;PMS_P1;PMS_P2;Temp;Humidity;BMP_temperature;BMP_pressure;BME280_temperature;BME280_humidity;BME280_pressure;Samples;Min_cycle;Max_cycle;Signal;HPM_P1;HPM_P2
2022/04/21 00:01:02;;;;;;;28.38;13.28;;;;;;;8.44;69.05;101151.30;1704431;83;21067;-89
2022/04/21 00:03:29;;;;;;;29.23;14.53;;;;;;;8.42;69.09;101155.59;1700034;83;21423;-87
2022/04/21 00:05:56;;;;;;;27.85;13.13;;;;;;;8.40;69.13;101146.31;1696829;81;21141;-89
2022/04/21 00:08:23;;;;;;;26.23;13.25;;;;;;;8.40;69.23;101151.56;1681140;83;21883;-87
2022/04/21 00:10:49;;;;;;;26.45;12.10;;;;;;;8.37;69.23;101151.03;1687918;84;21091;-88
2022/04/21 00:13:16;;;;;;;29.75;13.60;;;;;;;8.33;69.25;101149.13;1680685;83;21082;-86
2022/04/21 00:15:43;;;;;;;33.00;13.40;;;;;;;8.29;69.30;101152.86;1703782;83;21087;-89
2022/04/21 00:18:10;;;;;;;24.55;11.93;;;;;;;8.25;69.40;101145.28;1709061;83;21052;-89
2022/04/21 00:20:39;;;;;;;30.25;11.30;;;;;;;8.25;69.46;101147.02;1690873;83;21794;-89
2022/04/21 00:25:51;;;;;;;27.65;12.07;;;;;;;8.23;69.56;101148.68;1687198;83;21086;-87
2022/04/21 00:28:17;;;;;;;22.77;11.60;;;;;;;8.29;69.69;101146.30;1686345;83;21380;-87
2022/04/21 00:30:45;;;;;;;25.57;11.60;;;;;;;8.30;69.66;101137.19;1724641;82;21714;-87
2022/04/21 00:33:12;;;;;;;28.40;11.60;;;;;;;8.31;69.69;101142.01;1696155;82;22633;-87
2022/04/21 00:35:39;;;;;;;21.65;11.90;;;;;;;8.32;69.73;101147.32;1681219;83;21101;-87
2022/04/21 00:38:09;;;;;;;29.12;12.95;;;;;;;8.28;69.79;101137.55;1679916;84;21187;-88
2022/04/21 00:40:36;;;;;;;26.10;11.75;;;;;;;8.35;69.75;101148.77;1662576;84;21116;-88
2022/04/21 00:43:08;;;;;;;29.37;11.12;;;;;;;8.37;69.79;101142.25;1717509;82;21050;-89
2022/04/21 00:45:35;;;;;;;23.80;10.40;;;;;;;8.38;69.76;101146.67;1677427;84;21787;-89
2022/04/21 00:48:04;;;;;;;22.87;12.18;;;;;;;8.38;69.76;101141.00;1680030;85;21144;-89
2022/04/21 00:50:41;;;;;;;23.85;11.43;;;;;;;8.41;69.81;101147.20;1670407;84;21073;-88
2022/04/21 00:53:05;;;;;;;41.63;18.70;;;;;;;8.42;69.85;101138.55;1693292;83;21070;-87
2022/04/21 00:55:32;;;;;;;24.90;13.15;;;;;;;8.45;69.95;101141.30;1670953;84;21123;-88
2022/04/21 00:58:01;;;;;;;23.30;12.40;;;;;;;8.46;69.95;101137.41;1708989;82;21763;-88
2022/04/21 01:00:28;;;;;;;22.65;12.33;;;;;;;8.48;70.04;101138.36;1716206;83;21372;-87
2022/04/21 01:03:01;;;;;;;21.55;11.38;;;;;;;8.49;70.04;101136.22;1713494;83;21112;-88
2022/04/21 01:05:34;;;;;;;22.10;11.60;;;;;;;8.54;70.06;101141.25;1719681;81;21524;-88
2022/04/21 01:08:08;;;;;;;26.02;12.15;;;;;;;8.58;70.13;101137.41;1716671;83;21057;-88
2022/04/21 01:10:37;;;;;;;22.27;11.10;;;;;;;8.59;70.15;101137.90;1721539;82;22538;-88
2022/04/21 01:13:08;;;;;;;23.55;11.38;;;;;;;8.64;70.16;101138.98;1711976;82;21031;-87
2022/04/21 01:15:52;;;;;;;23.30;10.45;;;;;;;8.67;70.17;101141.70;1715127;83;21730;-87
2022/04/21 01:18:27;;;;;;;;;;;;;;;8.69;70.16;101140.03;1711237;83;21457;-88
2022/04/21 01:20:54;;;;;;;20.90;11.20;;;;;;;8.73;70.22;101137.61;1699188;83;20634;-86
2022/04/21 01:23:21;;;;;;;29.87;14.55;;;;;;;8.76;70.17;101131.56;1703631;83;22558;-87
2022/04/21 01:25:48;;;;;;;22.87;13.25;;;;;;;8.77;70.19;101135.11;1703754;83;21057;-87
2022/04/21 01:28:14;;;;;;;30.23;15.98;;;;;;;8.80;70.18;101134.78;1690707;83;21043;-87
2022/04/21 01:30:42;;;;;;;21.90;11.22;;;;;;;8.80;70.17;101133.89;1703317;83;21462;-87
2022/04/21 01:33:08;;;;;;;19.55;10.85;;;;;;;8.81;70.15;101136.59;1674037;84;21162;-88
2022/04/21 01:35:36;;;;;;;22.07;10.90;;;;;;;8.85;70.16;101137.59;1691059;84;21784;-88
2022/04/21 01:43:37;;;;;;;43.42;19.80;;;;;;;8.85;70.00;101141.53;1679430;84;21101;-88
2022/04/21 01:46:04;;;;;;;52.48;24.85;;;;;;;8.82;70.01;101142.33;1679483;84;21061;-86
2022/04/21 01:48:31;;;;;;;52.98;25.23;;;;;;;8.78;69.95;101135.57;1689072;84;21711;-86
2022/04/21 01:50:58;;;;;;;33.58;17.55;;;;;;;8.73;69.98;101129.73;1703862;83;21067;-87
2022/04/21 01:53:24;;;;;;;40.92;17.27;;;;;;;8.70;69.99;101133.97;1701345;84;21074;-86
2022/04/21 01:55:55;;;;;;;25.25;14.40;;;;;;;8.66;69.97;101127.70;1665599;85;21077;-86
2022/04/21 01:58:34;;;;;;;32.20;14.05;;;;;;;8.64;69.97;101131.11;1685839;84;21050;-87
2022/04/21 02:01:01;;;;;;;29.60;14.65;;;;;;;8.61;70.03;101129.67;1693716;81;21696;-88
2022/04/21 02:03:30;;;;;;;29.30;14.85;;;;;;;8.59;69.99;101133.97;1737851;81;21163;-87
2022/04/21 02:05:57;;;;;;;32.60;14.40;;;;;;;8.57;70.07;101129.96;1726893;81;21586;-86
2022/04/21 02:08:23;;;;;;;29.87;15.18;;;;;;;8.54;70.05;101128.13;1723488;81;21077;-87
2022/04/21 02:10:50;;;;;;;33.02;14.58;;;;;;;8.50;70.12;101128.84;1723943;83;21765;-88
2022/04/21 02:13:17;;;;;;;27.50;14.68;;;;;;;8.48;70.16;101130.91;1722586;82;21733;-87
2022/04/21 02:15:44;;;;;;;33.05;15.43;;;;;;;8.48;70.33;101129.17;1756609;80;20995;-87
2022/04/21 02:18:12;;;;;;;28.55;16.45;;;;;;;8.48;70.38;101127.86;1744591;81;21054;-88
2022/04/21 02:20:41;;;;;;;31.33;16.35;;;;;;;8.50;70.48;101129.23;1701994;83;21081;-89
2022/04/21 02:23:08;;;;;;;26.07;14.65;;;;;;;8.54;70.46;101136.00;1700453;82;21139;-89
2022/04/21 02:25:35;;;;;;;26.95;16.20;;;;;;;8.56;70.49;101134.33;1722116;81;21895;-88
2022/04/21 02:28:02;;;;;;;27.32;15.83;;;;;;;8.60;70.51;101133.15;1735026;81;21082;-90
2022/04/21 02:30:29;;;;;;;29.72;15.10;;;;;;;8.63;70.49;101132.81;1762071;81;21090;-90
2022/04/21 02:32:56;;;;;;;23.73;14.43;;;;;;;8.66;70.47;101134.69;1725998;81;21073;-91
2022/04/21 02:35:23;;;;;;;26.52;17.92;;;;;;;8.67;70.47;101133.44;1724185;82;21581;-90
2022/04/21 02:37:50;;;;;;;22.00;12.47;;;;;;;8.71;70.55;101129.20;1701534;82;21778;-90
2022/04/21 02:40:17;;;;;;;18.57;10.88;;;;;;;8.73;70.59;101120.55;1710622;83;21609;-90
2022/04/21 02:42:50;;;;;;;18.00;10.90;;;;;;;8.77;70.61;101124.19;1699588;81;21211;-87
2022/04/21 02:45:17;;;;;;;;;;;;;;;8.85;70.67;101127.09;1765583;80;21122;-87
2022/04/21 02:47:45;;;;;;;15.13;9.95;;;;;;;8.90;70.71;101126.44;1733711;80;20211;-88
2022/04/21 02:50:24;;;;;;;23.10;12.10;;;;;;;8.95;70.65;101137.09;1723854;83;22437;-89
2022/04/21 02:52:58;;;;;;;20.43;12.45;;;;;;;9.00;70.67;101135.97;1723632;83;21050;-88
2022/04/21 02:58:32;;;;;;;18.75;8.30;;;;;;;8.99;70.67;101138.11;1722476;81;21458;-88
2022/04/21 03:01:01;;;;;;;13.20;8.60;;;;;;;8.99;70.68;101140.73;1723919;83;21105;-90
2022/04/21 03:03:28;;;;;;;17.67;9.40;;;;;;;8.98;70.72;101145.10;1683380;83;22586;-89
2022/04/21 03:05:55;;;;;;;16.45;10.80;;;;;;;8.99;70.73;101143.36;1696253;81;21263;-89
2022/04/21 03:08:23;;;;;;;22.15;11.57;;;;;;;8.97;70.76;101140.67;1711348;83;21037;-89
2022/04/21 03:10:49;;;;;;;19.40;9.73;;;;;;;9.00;70.86;101140.80;1701827;83;21604;-89
2022/04/21 03:13:16;;;;;;;16.75;9.45;;;;;;;9.01;70.87;101140.38;1703458;83;21733;-88
2022/04/21 03:15:43;;;;;;;14.23;8.18;;;;;;;9.02;70.87;101138.23;1706277;82;21991;-89
2022/04/21 03:18:10;;;;;;;16.97;9.88;;;;;;;9.04;70.88;101144.01;1692003;83;21073;-87
2022/04/21 03:26:14;;;;;;;20.27;13.58;;;;;;;9.11;70.84;101147.77;1673223;84;21066;-88
2022/04/21 03:28:39;;;;;;;26.93;16.93;;;;;;;9.13;70.87;101141.73;1695231;83;21827;-89
2022/04/21 03:31:06;;;;;;;26.97;19.40;;;;;;;9.18;70.81;101144.55;1699046;82;21086;-88
2022/04/21 03:33:33;;;;;;;24.23;18.25;;;;;;;9.22;70.80;101141.61;1713305;82;21057;-88
2022/04/21 03:36:00;;;;;;;20.95;15.78;;;;;;;9.26;70.71;101146.13;1709832;82;21078;-88
2022/04/21 03:38:27;;;;;;;18.17;14.30;;;;;;;9.28;70.66;101147.08;1680133;84;21081;-88
2022/04/21 03:40:56;;;;;;;18.02;13.50;;;;;;;9.33;70.60;101146.84;1697109;84;21804;-88
2022/04/21 03:43:23;;;;;;;16.65;11.63;;;;;;;9.35;70.57;101143.84;1695955;83;21007;-87
2022/04/21 03:45:52;;;;;;;18.75;11.70;;;;;;;9.38;70.52;101148.30;1704941;83;21050;-88
2022/04/21 03:48:19;;;;;;;16.25;10.80;;;;;;;9.41;70.46;101151.05;1706643;82;21432;-88
2022/04/21 03:50:46;;;;;;;17.82;10.70;;;;;;;9.43;70.41;101143.69;1700933;84;21089;-88
2022/04/21 03:53:18;;;;;;;18.48;9.43;;;;;;;9.46;70.37;101146.44;1726240;82;22647;-89
2022/04/21 03:55:54;;;;;;;12.47;9.03;;;;;;;9.49;70.34;101146.53;1718336;82;21081;-87
2022/04/21 03:58:14;;;;;;;15.23;9.20;;;;;;;9.51;70.28;101148.78;1698320;81;21078;-89
2022/04/21 04:00:44;;;;;;;17.35;9.33;;;;;;;9.55;70.22;101145.85;1696193;83;21311;-88
2022/04/21 04:03:11;;;;;;;17.70;9.53;;;;;;;9.58;70.19;101149.91;1726656;80;21117;-87
2022/04/21 04:05:38;;;;;;;13.85;9.50;;;;;;;9.63;70.14;101150.98;1752829;80;21897;-88
2022/04/21 04:11:01;;;;;;;20.08;11.28;;;;;;;9.68;70.10;101148.50;1745774;80;21359;-89
2022/04/21 04:13:25;;;;;;;19.52;10.65;;;;;;;9.73;70.08;101152.19;1724134;81;21330;-88
2022/04/21 04:15:53;;;;;;;16.65;10.00;;;;;;;9.77;70.03;101147.50;1753896;81;21089;-87
2022/04/21 04:18:22;;;;;;;17.90;11.97;;;;;;;9.81;69.96;101160.34;1748917;80;21779;-86
2022/04/21 04:21:12;;;;;;;19.50;12.85;;;;;;;9.83;69.93;101160.85;1764572;80;21551;-90
2022/04/21 04:23:37;;;;;;;19.77;13.22;;;;;;;9.86;69.87;101162.72;1782053;78;21022;-89
2022/04/21 04:26:04;;;;;;;23.55;13.80;;;;;;;9.86;69.80;101167.55;1749228;82;21411;-85
2022/04/21 04:28:31;;;;;;;27.67;16.05;;;;;;;9.86;69.64;101168.86;1749070;82;21154;-89
2022/04/21 04:31:17;;;;;;;35.05;16.87;;;;;;;9.87;69.60;101163.17;1749817;82;21859;-88
2022/04/21 04:33:44;;;;;;;28.45;16.42;;;;;;;9.92;69.59;101163.80;1749193;82;21064;-89
2022/04/21 04:36:21;;;;;;;32.17;17.40;;;;;;;9.99;69.52;101167.55;1746822;81;21583;-85
2022/04/21 04:38:50;;;;;;;31.95;17.95;;;;;;;10.08;69.42;101164.34;1743919;82;21528;-94
2022/04/21 04:47:47;;;;;;;28.92;18.65;;;;;;;10.16;68.99;101161.53;1749134;82;21007;-89
2022/04/21 04:50:14;;;;;;;24.67;16.67;;;;;;;10.21;68.83;101160.36;1732739;82;21357;-88
2022/04/21 04:52:41;;;;;;;31.45;15.75;;;;;;;10.28;68.88;101162.36;1737829;82;21084;-89
2022/04/21 04:55:10;;;;;;;24.65;13.43;;;;;;;10.37;68.76;101161.80;1745712;80;21051;-87
2022/04/21 04:57:49;;;;;;;24.02;13.48;;;;;;;10.47;68.74;101162.16;1744552;80;21821;-88
2022/04/21 05:00:29;;;;;;;25.15;14.20;;;;;;;10.62;68.63;101161.75;1743672;80;21097;-87
2022/04/21 05:03:01;;;;;;;26.20;13.18;;;;;;;10.75;68.46;101159.48;1713689;83;21073;-89
2022/04/21 05:05:32;;;;;;;23.38;12.25;;;;;;;10.82;68.17;101163.66;1728970;80;21066;-86
2022/04/21 05:08:09;;;;;;;24.00;11.30;;;;;;;10.82;67.92;101155.77;1771343;80;21688;-94
2022/04/21 05:10:46;;;;;;;20.60;10.10;;;;;;;10.88;67.76;101159.89;1756239;80;21060;-89
2022/04/21 05:13:30;;;;;;;15.63;8.83;;;;;;;10.86;67.43;101154.12;1772155;80;21036;-95
2022/04/21 05:15:58;;;;;;;17.45;9.95;;;;;;;10.88;67.24;101159.89;1774992;80;21838;-93
2022/04/21 05:18:26;;;;;;;16.77;8.88;;;;;;;10.89;67.10;101167.39;1758147;80;21600;-91
2022/04/21 05:20:56;;;;;;;17.98;9.10;;;;;;;10.91;66.87;101163.06;1741085;81;21034;-90
2022/04/21 05:23:23;;;;;;;17.48;9.50;;;;;;;10.92;66.74;101164.83;1758709;80;21763;-88
2022/04/21 05:33:01;;;;;;;24.10;10.65;;;;;;;10.94;66.54;101165.77;1621712;88;21082;-88
2022/04/21 05:39:43;;;;;;;23.95;10.32;;;;;;;11.09;66.27;101166.65;1619822;87;21088;-88
2022/04/21 05:42:12;;;;;;;22.80;10.13;;;;;;;11.20;66.28;101164.34;1577099;89;21219;-87
2022/04/21 05:44:40;;;;;;;20.62;9.63;;;;;;;11.41;66.21;101158.38;1521220;92;21161;-87
2022/04/21 05:47:19;;;;;;;18.50;9.03;;;;;;;11.51;65.79;101162.59;1546890;91;21170;-87
2022/04/21 05:49:47;;;;;;;18.95;9.05;;;;;;;11.56;65.47;101160.55;1548278;91;21134;-87
2022/04/21 05:52:14;;;;;;;23.65;8.85;;;;;;;11.55;65.45;101157.44;1566568;91;21817;-88
2022/04/21 05:54:41;;;;;;;16.30;7.97;;;;;;;11.72;65.46;101159.20;1614982;87;21132;-88
2022/04/21 05:57:10;;;;;;;17.37;8.43;;;;;;;11.89;65.32;101156.13;1614190;88;21124;-87
2022/04/21 05:59:53;;;;;;;21.62;8.90;;;;;;;12.08;65.06;101161.05;1618694;88;21188;-89
2022/04/21 06:02:23;;;;;;;17.17;7.80;;;;;;;12.23;64.78;101149.55;1591647;90;21125;-87
2022/04/21 06:04:59;;;;;;;16.93;8.10;;;;;;;12.45;64.58;101158.00;1595419;88;21105;-88
2022/04/21 06:07:30;;;;;;;17.90;7.45;;;;;;;12.72;64.62;101159.50;1616341;86;21093;-87
2022/04/21 06:10:41;;;;;;;18.55;7.12;;;;;;;12.96;64.00;101160.04;1617098;88;21134;-88
2022/04/21 06:13:08;;;;;;;15.88;6.80;;;;;;;13.09;63.29;101161.64;1566208;91;21128;-89
2022/04/21 06:15:35;;;;;;;16.10;6.12;;;;;;;13.08;62.70;101165.13;1594916;89;21133;-89
2022/04/21 06:18:06;;;;;;;19.50;6.40;;;;;;;12.93;62.31;101161.31;1601503;88;21584;-90
2022/04/21 06:20:40;;;;;;;11.68;5.40;;;;;;;12.87;62.14;101159.84;1601516;89;21145;-90
2022/04/21 06:27:15;;;;;;;10.85;5.35;;;;;;;12.51;61.92;101162.54;1599903;88;21101;-89
2022/04/21 06:29:41;;;;;;;15.40;6.30;;;;;;;12.45;61.60;101166.81;1601421;89;21134;-89
2022/04/21 06:37:07;;;;;;;13.98;6.08;;;;;;;12.36;61.71;101168.34;1597724;89;21624;-88
2022/04/21 06:39:47;;;;;;;13.85;4.70;;;;;;;12.33;61.87;101159.02;1611483;88;21152;-89
2022/04/21 06:42:26;;;;;;;11.70;5.05;;;;;;;12.40;61.79;101151.28;1639559;87;21081;-88
2022/04/21 06:50:26;;;;;;;13.45;5.00;;;;;;;12.57;61.68;101142.43;1714249;81;21057;-88
2022/04/21 06:52:56;;;;;;;8.73;4.80;;;;;;;12.64;61.62;101137.76;1755621;80;21611;-87
2022/04/21 06:55:36;;;;;;;14.95;5.30;;;;;;;12.71;61.58;101135.28;1776490;80;21051;-89
2022/04/21 06:58:08;;;;;;;13.38;4.75;;;;;;;12.75;61.46;101137.12;1739578;81;21283;-89
2022/04/21 07:00:37;;;;;;;11.12;4.90;;;;;;;12.81;61.43;101136.81;1724808;83;22652;-89
2022/04/21 07:03:07;;;;;;;10.72;5.62;;;;;;;12.90;61.30;101135.25;1752176;80;21374;-88
2022/04/21 07:05:35;;;;;;;12.33;4.83;;;;;;;12.96;61.27;101130.97;1747677;80;21573;-88
2022/04/21 07:08:11;;;;;;;;;;;;;;;;;;;;;
2022/04/21 07:10:38;;;;;;;10.13;5.00;;;;;;;13.12;60.87;101129.56;1784656;80;21077;-88
2022/04/21 07:13:18;;;;;;;14.07;4.20;;;;;;;13.18;60.84;101126.16;1755115;80;21541;-88
2022/04/21 07:20:12;;;;;;;6.87;3.47;;;;;;;13.28;60.13;101120.61;1768086;80;21090;-90
2022/04/21 07:22:48;;;;;;;6.83;3.52;;;;;;;13.15;59.74;101125.64;1746714;80;21086;-89
2022/04/21 07:26:19;;;;;;;8.30;3.52;;;;;;;13.15;60.12;101128.72;1762640;80;21064;-89
2022/04/21 07:29:07;;;;;;;5.83;3.40;;;;;;;13.20;59.70;101129.72;1665794;84;21074;-87
2022/04/21 07:31:40;;;;;;;6.05;3.15;;;;;;;13.17;59.71;101135.81;1724888;80;21117;-90
2022/04/21 07:34:08;;;;;;;5.75;3.52;;;;;;;13.16;59.34;101145.05;1757720;80;21049;-89
2022/04/21 07:36:37;;;;;;;6.72;3.62;;;;;;;13.09;59.28;101127.28;1770727;79;21670;-90
2022/04/21 07:39:19;;;;;;;;;;;;;;;;;;;;;
2022/04/21 07:41:49;;;;;;;7.17;3.58;;;;;;;13.19;59.63;101129.23;1699300;82;21034;-86
2022/04/21 07:44:20;;;;;;;12.98;3.47;;;;;;;13.29;59.66;101125.94;1731442;80;21034;-87
2022/04/21 07:46:49;;;;;;;6.40;2.90;;;;;;;13.38;59.44;101126.16;1686355;84;21070;-88
2022/04/21 07:55:25;;;;;;;5.58;3.25;;;;;;;13.49;59.15;101118.84;1526972;93;21145;-90
2022/04/21 07:57:58;;;;;;;7.15;3.35;;;;;;;13.56;58.73;101129.56;1549488;87;21710;-87
2022/04/21 08:00:48;;;;;;;8.88;3.45;;;;;;;13.53;58.30;101117.63;1658439;86;21894;-89
2022/04/21 08:03:28;;;;;;;11.73;4.20;;;;;;;13.53;58.33;101116.30;1632922;86;21110;-89
2022/04/21 08:05:55;;;;;;;4.33;3.30;;;;;;;13.56;58.20;101113.70;1659667;85;21111;-91
2022/04/21 08:08:22;;;;;;;4.70;3.25;;;;;;;13.62;58.04;101107.63;1683781;82;22852;-89
2022/04/21 08:11:21;;;;;;;6.10;3.33;;;;;;;13.67;58.24;101109.93;1612375;87;21047;-92
2022/04/21 08:13:52;;;;;;;4.35;3.08;;;;;;;13.77;58.36;101104.37;1626911;87;21125;-92
2022/04/21 08:16:26;;;;;;;6.85;3.92;;;;;;;13.89;57.84;101104.59;1599207;88;21111;-92
2022/04/21 08:19:12;;;;;;;;;;;;;;;;;;;;;
2022/04/21 08:21:42;;;;;;;9.50;3.45;;;;;;;13.98;57.47;101098.13;1609234;87;21852;-92
2022/04/21 08:33:37;;;;;;;16.23;4.25;;;;;;;14.30;57.01;101100.81;1723075;81;21111;-88
2022/04/21 08:36:05;;;;;;;8.13;3.83;;;;;;;14.26;56.88;101089.72;1691020;83;21769;-88
2022/04/21 08:38:37;;;;;;;8.33;5.12;;;;;;;14.19;56.67;101100.23;1728227;82;21066;-87
2022/04/21 08:42:02;;;;;;;;;;;;;;;;;;;;;
2022/04/21 08:44:28;;;;;;;8.30;5.25;;;;;;;14.06;56.57;101098.66;1683919;83;21056;-90
2022/04/21 08:46:59;;;;;;;7.90;4.58;;;;;;;14.04;56.51;101097.75;1713088;82;21035;-88
2022/04/21 08:49:36;;;;;;;12.40;4.10;;;;;;;13.89;56.25;101097.98;1706962;83;22602;-91
2022/04/21 08:52:19;;;;;;;12.47;4.80;;;;;;;13.83;56.21;101091.67;1707924;83;21091;-94
2022/04/21 08:54:46;;;;;;;9.80;4.47;;;;;;;13.76;56.08;101088.05;1709083;83;21178;-89
2022/04/21 08:57:20;;;;;;;15.40;4.30;;;;;;;13.73;56.23;101084.02;1708642;83;21135;-89
2022/04/21 09:00:31;;;;;;;;;;;;;;;13.73;56.15;101094.59;1708263;83;21054;-89
2022/04/21 09:03:17;;;;;;;8.55;4.47;;;;;;;13.76;56.04;101093.34;1666978;85;23129;-88
2022/04/21 09:05:49;;;;;;;9.03;3.75;;;;;;;13.71;55.59;101109.56;1666157;86;21081;-88
2022/04/21 09:08:26;;;;;;;6.62;4.17;;;;;;;13.63;55.60;101098.84;1667142;86;21097;-87
2022/04/21 09:11:12;;;;;;;7.92;4.12;;;;;;;13.61;55.53;101119.97;1664259;86;21176;-88
2022/04/21 09:13:41;;;;;;;7.65;3.87;;;;;;;13.52;55.04;101109.22;1653151;85;21137;-94
2022/04/21 09:16:21;;;;;;;13.72;4.05;;;;;;;13.40;54.94;101097.98;1615973;87;21031;-92
2022/04/21 09:19:02;;;;;;;6.37;4.10;;;;;;;13.35;55.29;101101.41;1638501;85;21098;-89
2022/04/21 09:21:43;;;;;;;6.78;3.77;;;;;;;13.36;55.03;101105.81;1639341;87;21130;-91
2022/04/21 09:24:25;;;;;;;8.13;4.10;;;;;;;13.35;55.29;101124.77;1615882;87;21122;-89
2022/04/21 09:27:06;;;;;;;6.53;4.00;;;;;;;13.28;54.64;101104.75;1671413;85;21109;-89
2022/04/21 09:29:42;;;;;;;7.62;3.67;;;;;;;13.22;54.38;101101.55;1609178;87;21118;-91
2022/04/21 09:32:24;;;;;;;11.05;4.83;;;;;;;13.23;54.48;101104.64;1654018;85;21011;-90
2022/04/21 09:35:10;;;;;;;;;;;;;;;;;;;;;
2022/04/21 09:37:33;;;;;;;8.30;4.28;;;;;;;13.16;54.43;101094.84;1565480;89;21114;-93
2022/04/21 09:40:20;;;;;;;15.43;5.00;;;;;;;13.25;54.62;101108.64;1558394;91;21106;-90
2022/04/21 09:43:56;;;;;;;7.22;4.35;;;;;;;13.17;54.18;101103.20;1569574;91;21235;-89
2022/04/21 09:47:44;;;;;;;;;;;;;;;;;;;;;
2022/04/21 09:50:14;;;;;;;9.90;5.05;;;;;;;12.83;53.94;101103.39;1705284;82;21035;-87
2022/04/21 09:52:52;;;;;;;7.92;4.58;;;;;;;12.79;54.09;101116.52;1677553;83;22070;-90
2022/04/21 09:55:31;;;;;;;9.03;4.40;;;;;;;12.68;53.75;101125.95;1652995;86;21997;-95
2022/04/21 09:58:10;;;;;;;8.63;4.78;;;;;;;12.57;53.19;101130.55;1654690;84;21152;-87
2022/04/21 10:00:45;;;;;;;11.30;4.03;;;;;;;12.45;53.63;101112.69;1644063;85;21105;-95
2022/04/21 10:03:47;;;;;;;9.45;4.28;;;;;;;12.46;53.73;101113.56;1659706;84;21077;-94
2022/04/21 10:06:22;;;;;;;8.53;4.17;;;;;;;12.22;53.90;101081.80;1690706;84;21528;-90
2022/04/21 10:08:54;;;;;;;13.43;4.10;;;;;;;12.29;53.96;101106.58;1685345;84;21090;-89
2022/04/21 10:11:32;;;;;;;11.53;5.12;;;;;;;12.31;54.38;101106.62;1673347;84;21090;-89
2022/04/21 10:14:27;;;;;;;;;;;;;;;;;;;;;
2022/04/21 10:16:58;;;;;;;11.50;4.30;;;;;;;12.44;53.83;101099.44;1642153;85;21089;-91
2022/04/21 10:23:28;;;;;;;8.00;3.80;;;;;;;12.53;53.41;101094.37;1711412;83;21505;-94
2022/04/21 10:26:03;;;;;;;8.83;3.95;;;;;;;12.49;53.11;101105.73;1691647;83;23509;-91
2022/04/21 10:29:40;;;;;;;11.08;4.10;;;;;;;12.51;53.32;101097.41;1657783;85;21085;-92
2022/04/21 10:32:14;;;;;;;11.83;4.50;;;;;;;12.53;53.07;101109.33;1619158;87;21064;-89
2022/04/21 10:34:46;;;;;;;8.05;4.80;;;;;;;12.58;53.08;101087.45;1669403;83;21069;-89
2022/04/21 10:37:22;;;;;;;9.75;4.28;;;;;;;12.63;53.26;101094.14;1695252;84;21589;-91
2022/04/21 10:46:49;;;;;;;9.38;4.30;;;;;;;12.58;52.23;101068.97;1695397;82;21063;-87
2022/04/21 10:49:24;;;;;;;8.93;4.50;;;;;;;12.75;52.52;101109.39;1688445;84;21106;-93
2022/04/21 11:02:18;;;;;;;7.08;4.17;;;;;;;12.51;52.11;101100.05;1690027;84;21519;-93
2022/04/21 11:04:47;;;;;;;7.62;3.98;;;;;;;12.53;52.24;101098.77;1707880;81;21074;-87
2022/04/21 11:07:17;;;;;;;10.05;3.70;;;;;;;12.48;52.18;101103.96;1740877;80;21003;-91
2022/04/21 11:10:33;;;;;;;;;;;;;;;;;;;;;
2022/04/21 11:12:56;;;;;;;12.30;3.75;;;;;;;12.32;52.05;101109.30;1663666;81;21080;-87
2022/04/21 11:16:03;;;;;;;;;;;;;;;;;;;;;
2022/04/21 11:18:31;;;;;;;8.78;3.42;;;;;;;12.35;52.59;101109.78;1719710;81;21077;-88
2022/04/21 11:21:23;;;;;;;13.35;3.80;;;;;;;12.31;52.42;101092.09;1727277;81;21089;-87
2022/04/21 11:23:59;;;;;;;10.50;3.45;;;;;;;12.22;52.09;101105.55;1709153;81;21796;-88
2022/04/21 11:26:28;;;;;;;7.70;3.92;;;;;;;12.15;52.04;101120.77;1724591;81;21073;-87
2022/04/21 11:29:37;;;;;;;;;;;;;;;;;;;;;
2022/04/21 11:32:09;;;;;;;10.20;5.12;;;;;;;12.10;52.45;101089.41;1718256;83;21002;-91
2022/04/21 11:34:33;;;;;;;8.10;4.20;;;;;;;12.13;52.31;101129.52;1702124;83;21050;-92
2022/04/21 11:37:06;;;;;;;7.50;4.15;;;;;;;12.06;52.68;101096.36;1694272;83;21038;-88
2022/04/21 11:43:57;;;;;;;;;;;;;;;;;;;;;
2022/04/21 11:46:21;;;;;;;9.03;3.47;;;;;;;12.00;52.23;101090.06;1748252;81;21089;-87
2022/04/21 11:48:47;;;;;;;5.97;3.17;;;;;;;11.94;52.38;101096.08;1724111;81;21599;-92
2022/04/21 11:51:26;;;;;;;7.20;2.92;;;;;;;11.92;52.09;101097.78;1679797;81;21760;-90
2022/04/21 11:54:17;;;;;;;7.15;3.60;;;;;;;11.85;52.14;101104.61;1758294;81;21053;-92
2022/04/21 11:57:07;;;;;;;;;;;;;;;;;;;;;
2022/04/21 12:00:12;;;;;;;4.87;2.90;;;;;;;11.71;51.89;101109.94;1733943;81;21627;-90
2022/04/21 12:08:47;;;;;;;4.97;3.00;;;;;;;11.66;52.14;101095.33;1728485;82;21090;-90
2022/04/21 12:11:25;;;;;;;9.75;3.75;;;;;;;11.74;52.01;101111.34;1697683;83;21054;-90
2022/04/21 12:14:09;;;;;;;11.60;3.25;;;;;;;11.74;51.80;101105.19;1719046;83;21712;-92
2022/04/21 12:17:30;;;;;;;8.75;3.27;;;;;;;11.56;51.62;101085.81;1718248;83;21556;-92
2022/04/21 12:20:10;;;;;;;;;;;;;;;;;;;;;
2022/04/21 12:22:34;;;;;;;6.40;3.62;;;;;;;11.71;52.02;101109.05;1749489;80;21109;-87
2022/04/21 12:25:02;;;;;;;7.05;2.85;;;;;;;11.76;51.89;101113.59;1723996;82;21039;-89
2022/04/21 12:28:13;;;;;;;;;;;;;;;;;;;;;
2022/04/21 12:30:50;;;;;;;9.73;3.30;;;;;;;11.79;51.86;101109.73;1695490;82;21087;-89
2022/04/21 12:33:27;;;;;;;4.85;3.55;;;;;;;11.90;51.70;101094.63;1677369;85;21292;-90
2022/04/21 12:36:06;;;;;;;4.47;2.85;;;;;;;11.92;51.57;101097.78;1686483;85;21050;-90
2022/04/21 12:38:50;;;;;;;7.55;3.72;;;;;;;11.94;51.49;101094.75;1686140;85;21290;-88
2022/04/21 12:41:18;;;;;;;6.15;3.05;;;;;;;11.94;51.23;101097.83;1681233;83;21570;-88
2022/04/21 12:43:57;;;;;;;5.75;3.40;;;;;;;11.95;51.31;101096.96;1711410;83;21600;-90
2022/04/21 12:46:28;;;;;;;10.30;3.70;;;;;;;11.95;51.26;101098.28;1686833;84;21790;-89
2022/04/21 12:48:58;;;;;;;9.05;3.70;;;;;;;11.97;51.45;101093.49;1686360;83;21086;-88
2022/04/21 12:51:51;;;;;;;10.35;3.47;;;;;;;12.04;51.54;101095.87;1686292;85;21070;-89
2022/04/21 12:54:36;;;;;;;10.53;3.67;;;;;;;12.09;51.60;101091.61;1684870;84;21703;-89
2022/04/21 12:56:59;;;;;;;7.90;4.35;;;;;;;12.21;51.39;101099.80;1682970;84;21058;-89
2022/04/21 12:59:44;;;;;;;8.45;3.40;;;;;;;12.31;51.50;101098.27;1686070;85;21245;-88
2022/04/21 13:02:43;;;;;;;6.60;2.67;;;;;;;12.38;51.50;101099.31;1684180;83;21603;-89
2022/04/21 13:05:49;;;;;;;10.05;3.40;;;;;;;12.39;51.33;101109.03;1686422;85;21070;-90
2022/04/21 13:08:43;;;;;;;6.97;3.10;;;;;;;12.33;51.06;101113.73;1739626;81;21617;-90
2022/04/21 13:11:18;;;;;;;6.58;2.90;;;;;;;12.30;51.14;101104.41;1727637;82;21046;-87
2022/04/21 13:13:46;;;;;;;8.08;3.05;;;;;;;12.29;51.10;101096.45;1721061;82;21420;-88
2022/04/21 13:16:21;;;;;;;7.35;2.75;;;;;;;12.35;51.45;101101.87;1738875;82;21894;-88
2022/04/21 13:18:59;;;;;;;9.10;3.05;;;;;;;12.44;51.17;101115.28;1683818;83;21137;-91
2022/04/21 13:24:14;;;;;;;6.75;3.40;;;;;;;12.43;51.41;101110.88;1737613;82;21069;-90
2022/04/21 13:26:43;;;;;;;9.40;2.85;;;;;;;12.38;51.14;101119.11;1738075;82;21769;-90
2022/04/21 13:29:22;;;;;;;7.78;3.40;;;;;;;12.32;51.39;101116.34;1735652;82;21154;-89
2022/04/21 13:34:34;;;;;;;9.13;3.33;;;;;;;12.33;51.28;101120.74;1716639;82;21059;-89
2022/04/21 13:37:18;;;;;;;8.83;3.35;;;;;;;12.18;51.36;101125.22;1731898;81;21066;-89
2022/04/21 13:39:55;;;;;;;8.23;3.25;;;;;;;12.13;51.79;101117.20;1759985;81;25796;-90
2022/04/21 13:42:22;;;;;;;8.45;3.42;;;;;;;12.13;51.94;101124.24;1739802;81;21057;-90
2022/04/21 13:44:55;;;;;;;7.33;3.40;;;;;;;12.18;51.91;101118.22;1729482;81;21109;-91
2022/04/21 13:47:22;;;;;;;7.28;3.15;;;;;;;12.18;52.13;101126.54;1713336;81;21037;-89
2022/04/21 13:49:49;;;;;;;8.33;3.30;;;;;;;12.22;51.99;101119.19;1747991;81;21594;-89
2022/04/21 13:52:25;;;;;;;7.92;2.62;;;;;;;12.19;52.09;101117.34;1694720;82;21755;-91
2022/04/21 13:54:52;;;;;;;7.92;3.42;;;;;;;12.20;52.09;101122.19;1683369;81;21047;-86
2022/04/21 13:57:27;;;;;;;5.70;3.15;;;;;;;12.18;51.98;101123.90;1729650;81;21082;-89
2022/04/21 13:59:53;;;;;;;6.58;3.33;;;;;;;12.15;52.06;101110.22;1742225;81;21050;-88
2022/04/21 14:02:20;;;;;;;4.75;2.98;;;;;;;12.14;52.07;101119.41;1727769;82;21062;-88